sensor_id;sensor_type;location;lat;lon;timestamp;pressure;altitude;pressure_sealevel;temperature
64600;BMP280;6553;48.412;9.514;2023-07-31T00:00:27;71917.16;;;22.19
64600;BMP280;6553;48.412;9.514;2023-07-31T00:02:54;71910.53;;;22.18
64600;BMP280;6553;48.412;9.514;2023-07-31T00:05:20;71907.34;;;22.15
64600;BMP280;6553;48.412;9.514;2023-07-31T00:07:46;71912.66;;;22.20
64600;BMP280;6553;48.412;9.514;2023-07-31T00:10:12;71914.91;;;22.20
64600;BMP280;6553;48.412;9.514;2023-07-31T00:12:43;71917.16;;;22.19
64600;BMP280;6553;48.412;9.514;2023-07-31T00:15:10;71911.59;;;22.19
64600;BMP280;6553;48.412;9.514;2023-07-31T00:17:36;71914.91;;;22.20
64600;BMP280;6553;48.412;9.514;2023-07-31T00:20:03;71910.00;;;22.18
64600;BMP280;6553;48.412;9.514;2023-07-31T00:22:28;71911.59;;;22.19
64600;BMP280;6553;48.412;9.514;2023-07-31T00:24:56;71918.88;;;22.18
64600;BMP280;6553;48.412;9.514;2023-07-31T00:27:22;71914.50;;;22.17
64600;BMP280;6553;48.412;9.514;2023-07-31T00:29:47;71922.31;;;22.16
64600;BMP280;6553;48.412;9.514;2023-07-31T00:32:13;71916.09;;;22.18
64600;BMP280;6553;48.412;9.514;2023-07-31T00:34:39;71911.72;;;22.17
64600;BMP280;6553;48.412;9.514;2023-07-31T00:37:05;71911.19;;;22.16
64600;BMP280;6553;48.412;9.514;2023-07-31T00:39:30;71910.66;;;22.16
64600;BMP280;6553;48.412;9.514;2023-07-31T00:41:56;71912.91;;;22.15
64600;BMP280;6553;48.412;9.514;2023-07-31T00:44:22;71910.13;;;22.15
64600;BMP280;6553;48.412;9.514;2023-07-31T00:46:48;71910.66;;;22.16
64600;BMP280;6553;48.412;9.514;2023-07-31T00:49:15;71905.75;;;22.14
64600;BMP280;6553;48.412;9.514;2023-07-31T00:51:41;71906.81;;;22.15
64600;BMP280;6553;48.412;9.514;2023-07-31T00:54:08;71905.75;;;22.14
64600;BMP280;6553;48.412;9.514;2023-07-31T00:56:34;71910.78;;;22.13
64600;BMP280;6553;48.412;9.514;2023-07-31T00:59:00;71906.28;;;22.14
64600;BMP280;6553;48.412;9.514;2023-07-31T01:01:26;71906.94;;;22.12
64600;BMP280;6553;48.412;9.514;2023-07-31T01:03:53;71902.56;;;22.11
64600;BMP280;6553;48.412;9.514;2023-07-31T01:12:17;71907.47;;;22.13
64600;BMP280;6553;48.412;9.514;2023-07-31T01:15:07;71905.88;;;22.11
64600;BMP280;6553;48.412;9.514;2023-07-31T01:17:37;71903.09;;;22.11
64600;BMP280;6553;48.412;9.514;2023-07-31T01:20:12;71904.81;;;22.10
64600;BMP280;6553;48.412;9.514;2023-07-31T01:25:57;71906.41;;;22.12
64600;BMP280;6553;48.412;9.514;2023-07-31T01:28:40;71905.34;;;22.11
64600;BMP280;6553;48.412;9.514;2023-07-31T01:31:14;71903.78;;;22.09
64600;BMP280;6553;48.412;9.514;2023-07-31T01:33:42;71900.97;;;22.09
64600;BMP280;6553;48.412;9.514;2023-07-31T01:36:08;71902.16;;;22.08
64600;BMP280;6553;48.412;9.514;2023-07-31T01:38:34;71904.94;;;22.08
64600;BMP280;6553;48.412;9.514;2023-07-31T01:41:01;71904.94;;;22.08
64600;BMP280;6553;48.412;9.514;2023-07-31T01:43:27;71900.97;;;22.09
64600;BMP280;6553;48.412;9.514;2023-07-31T01:45:53;71899.91;;;22.08
64600;BMP280;6553;48.412;9.514;2023-07-31T01:48:19;71905.47;;;22.08
64600;BMP280;6553;48.412;9.514;2023-07-31T01:50:45;71902.69;;;22.08
64600;BMP280;6553;48.412;9.514;2023-07-31T01:53:10;71902.69;;;22.08
64600;BMP280;6553;48.412;9.514;2023-07-31T01:55:37;71905.47;;;22.08
64600;BMP280;6553;48.412;9.514;2023-07-31T01:58:03;71902.69;;;22.08
64600;BMP280;6553;48.412;9.514;2023-07-31T02:00:29;71900.97;;;22.09
64600;BMP280;6553;48.412;9.514;2023-07-31T02:02:55;71905.47;;;22.08
64600;BMP280;6553;48.412;9.514;2023-07-31T02:05:20;71895.00;;;22.06
64600;BMP280;6553;48.412;9.514;2023-07-31T02:07:46;71906.13;;;22.06
64600;BMP280;6553;48.412;9.514;2023-07-31T02:10:12;71896.19;;;22.05
64600;BMP280;6553;48.412;9.514;2023-07-31T02:12:38;71903.34;;;22.06
64600;BMP280;6553;48.412;9.514;2023-07-31T02:15:04;71898.31;;;22.07
64600;BMP280;6553;48.412;9.514;2023-07-31T02:17:30;71902.28;;;22.05
64600;BMP280;6553;48.412;9.514;2023-07-31T02:19:55;71899.50;;;22.05
64600;BMP280;6553;48.412;9.514;2023-07-31T02:22:21;71898.97;;;22.05
64600;BMP280;6553;48.412;9.514;2023-07-31T02:24:47;71894.59;;;22.03
64600;BMP280;6553;48.412;9.514;2023-07-31T02:27:13;71900.16;;;22.03
64600;BMP280;6553;48.412;9.514;2023-07-31T02:29:38;71900.81;;;22.01
64600;BMP280;6553;48.412;9.514;2023-07-31T02:32:04;71900.69;;;22.04
64600;BMP280;6553;48.412;9.514;2023-07-31T02:34:30;71898.03;;;22.01
64600;BMP280;6553;48.412;9.514;2023-07-31T02:36:56;71891.94;;;22.01
64600;BMP280;6553;48.412;9.514;2023-07-31T02:39:22;71895.78;;;22.02
64600;BMP280;6553;48.412;9.514;2023-07-31T02:41:48;71896.34;;;22.02
64600;BMP280;6553;48.412;9.514;2023-07-31T02:44:13;71888.50;;;22.03
64600;BMP280;6553;48.412;9.514;2023-07-31T02:46:40;71898.03;;;22.01
64600;BMP280;6553;48.412;9.514;2023-07-31T02:49:06;71900.81;;;22.01
64600;BMP280;6553;48.412;9.514;2023-07-31T02:51:31;71898.03;;;22.01
64600;BMP280;6553;48.412;9.514;2023-07-31T02:53:57;71896.44;;;22.00
64600;BMP280;6553;48.412;9.514;2023-07-31T02:56:23;71898.03;;;22.01
64600;BMP280;6553;48.412;9.514;2023-07-31T02:58:48;71894.72;;;22.01
64600;BMP280;6553;48.412;9.514;2023-07-31T03:01:14;71896.97;;;22.00
64600;BMP280;6553;48.412;9.514;2023-07-31T03:03:41;71893.00;;;22.02
64600;BMP280;6553;48.412;9.514;2023-07-31T03:06:07;71895.91;;;21.99
64600;BMP280;6553;48.412;9.514;2023-07-31T03:08:33;71897.50;;;22.01
64600;BMP280;6553;48.412;9.514;2023-07-31T03:10:59;71890.88;;;22.00
64600;BMP280;6553;48.412;9.514;2023-07-31T03:13:25;71899.19;;;22.00
64600;BMP280;6553;48.412;9.514;2023-07-31T03:15:50;71893.66;;;22.00
64600;BMP280;6553;48.412;9.514;2023-07-31T03:18:16;71893.13;;;21.99
64600;BMP280;6553;48.412;9.514;2023-07-31T03:20:43;71894.31;;;21.98
64600;BMP280;6553;48.412;9.514;2023-07-31T03:23:11;71893.91;;;21.95
64600;BMP280;6553;48.412;9.514;2023-07-31T03:25:37;71891.53;;;21.98
64600;BMP280;6553;48.412;9.514;2023-07-31T03:28:03;71893.25;;;21.97
64600;BMP280;6553;48.412;9.514;2023-07-31T03:30:30;71888.22;;;21.97
64600;BMP280;6553;48.412;9.514;2023-07-31T03:32:55;71887.69;;;21.97
64600;BMP280;6553;48.412;9.514;2023-07-31T03:35:21;71897.72;;;21.96
64600;BMP280;6553;48.412;9.514;2023-07-31T03:37:47;71898.25;;;21.96
64600;BMP280;6553;48.412;9.514;2023-07-31T03:40:13;71888.91;;;21.95
64600;BMP280;6553;48.412;9.514;2023-07-31T03:42:39;71897.22;;;21.95
64600;BMP280;6553;48.412;9.514;2023-07-31T03:45:05;71886.59;;;21.96
64600;BMP280;6553;48.412;9.514;2023-07-31T03:47:31;71888.91;;;21.95
64600;BMP280;6553;48.412;9.514;2023-07-31T03:49:57;71886.59;;;21.96
64600;BMP280;6553;48.412;9.514;2023-07-31T03:52:23;71882.91;;;21.92
64600;BMP280;6553;48.412;9.514;2023-07-31T03:54:48;71891.53;;;21.98
64600;BMP280;6553;48.412;9.514;2023-07-31T03:57:14;71890.47;;;21.97
64600;BMP280;6553;48.412;9.514;2023-07-31T03:59:40;71894.44;;;21.95
64600;BMP280;6553;48.412;9.514;2023-07-31T04:02:05;71890.47;;;21.97
64600;BMP280;6553;48.412;9.514;2023-07-31T04:04:31;71888.91;;;21.95
64600;BMP280;6553;48.412;9.514;2023-07-31T04:06:57;71876.31;;;21.91
64600;BMP280;6553;48.412;9.514;2023-07-31T04:09:23;71888.34;;;21.95
64600;BMP280;6553;48.412;9.514;2023-07-31T04:11:48;71889.53;;;21.93
64600;BMP280;6553;48.412;9.514;2023-07-31T04:14:14;71883.97;;;21.93
64600;BMP280;6553;48.412;9.514;2023-07-31T04:16:40;71887.28;;;21.94
64600;BMP280;6553;48.412;9.514;2023-07-31T04:19:05;71886.22;;;21.93
64600;BMP280;6553;48.412;9.514;2023-07-31T04:21:31;71881.97;;;21.89
64600;BMP280;6553;48.412;9.514;2023-07-31T04:23:57;71888.47;;;21.92
64600;BMP280;6553;48.412;9.514;2023-07-31T04:26:23;71887.94;;;21.92
64600;BMP280;6553;48.412;9.514;2023-07-31T04:28:49;71884.63;;;21.91
64600;BMP280;6553;48.412;9.514;2023-07-31T04:31:15;71890.19;;;21.91
64600;BMP280;6553;48.412;9.514;2023-07-31T04:33:41;71884.75;;;21.89
64600;BMP280;6553;48.412;9.514;2023-07-31T04:36:06;71885.81;;;21.90
64600;BMP280;6553;48.412;9.514;2023-07-31T04:38:32;71880.25;;;21.90
64600;BMP280;6553;48.412;9.514;2023-07-31T04:40:58;71884.22;;;21.88
64600;BMP280;6553;48.412;9.514;2023-07-31T04:43:23;71879.19;;;21.89
64600;BMP280;6553;48.412;9.514;2023-07-31T04:45:49;71891.91;;;21.90
64600;BMP280;6553;48.412;9.514;2023-07-31T04:48:16;71885.28;;;21.89
64600;BMP280;6553;48.412;9.514;2023-07-31T04:50:41;71890.19;;;21.91
64600;BMP280;6553;48.412;9.514;2023-07-31T04:53:07;71883.56;;;21.90
64600;BMP280;6553;48.412;9.514;2023-07-31T04:55:33;71884.09;;;21.91
64600;BMP280;6553;48.412;9.514;2023-07-31T04:57:59;71885.28;;;21.89
64600;BMP280;6553;48.412;9.514;2023-07-31T05:00:25;71884.09;;;21.91
64600;BMP280;6553;48.412;9.514;2023-07-31T05:02:51;71886.34;;;21.90
64600;BMP280;6553;48.412;9.514;2023-07-31T05:05:16;71884.09;;;21.91
64600;BMP280;6553;48.412;9.514;2023-07-31T05:07:42;71885.81;;;21.90
64600;BMP280;6553;48.412;9.514;2023-07-31T05:10:08;71887.94;;;21.92
64600;BMP280;6553;48.412;9.514;2023-07-31T05:12:34;71885.28;;;21.89
64600;BMP280;6553;48.412;9.514;2023-07-31T05:15:00;71883.03;;;21.90
64600;BMP280;6553;48.412;9.514;2023-07-31T05:17:25;71885.81;;;21.90
64600;BMP280;6553;48.412;9.514;2023-07-31T05:19:51;71881.44;;;21.88
64600;BMP280;6553;48.412;9.514;2023-07-31T05:22:17;71879.72;;;21.89
64600;BMP280;6553;48.412;9.514;2023-07-31T05:24:43;71880.25;;;21.90
64600;BMP280;6553;48.412;9.514;2023-07-31T05:27:08;71879.84;;;21.87
64600;BMP280;6553;48.412;9.514;2023-07-31T05:29:35;71877.59;;;21.87
64600;BMP280;6553;48.412;9.514;2023-07-31T05:32:01;71884.88;;;21.86
64600;BMP280;6553;48.412;9.514;2023-07-31T05:34:27;71881.03;;;21.85
64600;BMP280;6553;48.412;9.514;2023-07-31T05:36:53;71876.53;;;21.86
64600;BMP280;6553;48.412;9.514;2023-07-31T05:39:18;71884.22;;;21.88
64600;BMP280;6553;48.412;9.514;2023-07-31T05:41:45;71873.75;;;21.86
64600;BMP280;6553;48.412;9.514;2023-07-31T05:44:11;71884.75;;;21.89
64600;BMP280;6553;48.412;9.514;2023-07-31T05:46:37;71880.91;;;21.88
64600;BMP280;6553;48.412;9.514;2023-07-31T05:49:02;71879.19;;;21.89
64600;BMP280;6553;48.412;9.514;2023-07-31T05:51:28;71879.19;;;21.89
64600;BMP280;6553;48.412;9.514;2023-07-31T05:53:54;71885.81;;;21.90
64600;BMP280;6553;48.412;9.514;2023-07-31T05:56:20;71885.28;;;21.89
64600;BMP280;6553;48.412;9.514;2023-07-31T05:58:45;71883.69;;;21.88
64600;BMP280;6553;48.412;9.514;2023-07-31T06:01:11;71885.28;;;21.89
64600;BMP280;6553;48.412;9.514;2023-07-31T06:03:37;71883.03;;;21.90
64600;BMP280;6553;48.412;9.514;2023-07-31T06:06:02;71884.22;;;21.88
64600;BMP280;6553;48.412;9.514;2023-07-31T06:08:28;71887.53;;;21.89
64600;BMP280;6553;48.412;9.514;2023-07-31T06:10:54;71884.75;;;21.89
64600;BMP280;6553;48.412;9.514;2023-07-31T06:13:20;71875.88;;;21.88
64600;BMP280;6553;48.412;9.514;2023-07-31T06:15:45;71874.28;;;21.87
64600;BMP280;6553;48.412;9.514;2023-07-31T06:18:11;71876.53;;;21.86
64600;BMP280;6553;48.412;9.514;2023-07-31T06:20:37;71879.84;;;21.87
64600;BMP280;6553;48.412;9.514;2023-07-31T06:23:06;71877.59;;;21.87
64600;BMP280;6553;48.412;9.514;2023-07-31T06:25:32;71883.16;;;21.87
64600;BMP280;6553;48.412;9.514;2023-07-31T06:27:57;71870.97;;;21.86
64600;BMP280;6553;48.412;9.514;2023-07-31T06:30:23;71876.00;;;21.86
64600;BMP280;6553;48.412;9.514;2023-07-31T06:32:49;71879.84;;;21.87
64600;BMP280;6553;48.412;9.514;2023-07-31T06:35:14;71878.91;;;21.83
64600;BMP280;6553;48.412;9.514;2023-07-31T06:37:40;71883.81;;;21.85
64600;BMP280;6553;48.412;9.514;2023-07-31T06:40:09;71885.28;;;21.89
64600;BMP280;6553;48.412;9.514;2023-07-31T06:42:35;71889.13;;;21.90
64600;BMP280;6553;48.412;9.514;2023-07-31T06:45:05;71893.38;;;21.94
64600;BMP280;6553;48.412;9.514;2023-07-31T06:47:31;71887.81;;;21.94
64600;BMP280;6553;48.412;9.514;2023-07-31T06:49:57;71890.59;;;21.94
64600;BMP280;6553;48.412;9.514;2023-07-31T06:52:23;71890.59;;;21.94
64600;BMP280;6553;48.412;9.514;2023-07-31T06:55:02;71889.94;;;21.96
64600;BMP280;6553;48.412;9.514;2023-07-31T06:57:29;71887.69;;;21.97
64600;BMP280;6553;48.412;9.514;2023-07-31T06:59:55;71896.56;;;21.97
64600;BMP280;6553;48.412;9.514;2023-07-31T07:02:21;71889.94;;;21.96
64600;BMP280;6553;48.412;9.514;2023-07-31T07:04:47;71896.56;;;21.97
64600;BMP280;6553;48.412;9.514;2023-07-31T07:07:12;71888.75;;;21.98
64600;BMP280;6553;48.412;9.514;2023-07-31T07:09:38;71895.38;;;21.99
64600;BMP280;6553;48.412;9.514;2023-07-31T07:12:04;71892.06;;;21.98
64600;BMP280;6553;48.412;9.514;2023-07-31T07:14:30;71895.38;;;21.99
64600;BMP280;6553;48.412;9.514;2023-07-31T07:16:55;71893.00;;;22.02
64600;BMP280;6553;48.412;9.514;2023-07-31T07:19:21;71898.56;;;22.02
64600;BMP280;6553;48.412;9.514;2023-07-31T07:21:47;71898.56;;;22.02
64600;BMP280;6553;48.412;9.514;2023-07-31T07:24:13;71895.78;;;22.02
64600;BMP280;6553;48.412;9.514;2023-07-31T07:26:38;71891.94;;;22.01
64600;BMP280;6553;48.412;9.514;2023-07-31T07:29:04;71892.47;;;22.01
64600;BMP280;6553;48.412;9.514;2023-07-31T07:31:33;71895.25;;;22.01
64600;BMP280;6553;48.412;9.514;2023-07-31T07:33:59;71896.34;;;22.02
64600;BMP280;6553;48.412;9.514;2023-07-31T07:36:27;71897.91;;;22.04
64600;BMP280;6553;48.412;9.514;2023-07-31T07:38:53;71897.78;;;22.06
64600;BMP280;6553;48.412;9.514;2023-07-31T07:41:19;71904.94;;;22.08
64600;BMP280;6553;48.412;9.514;2023-07-31T07:43:44;71903.78;;;22.09
64600;BMP280;6553;48.412;9.514;2023-07-31T07:46:10;71906.53;;;22.09
64600;BMP280;6553;48.412;9.514;2023-07-31T07:48:36;71907.72;;;22.08
64600;BMP280;6553;48.412;9.514;2023-07-31T07:51:02;71903.09;;;22.11
64600;BMP280;6553;48.412;9.514;2023-07-31T07:53:27;71903.63;;;22.12
64600;BMP280;6553;48.412;9.514;2023-07-31T07:55:53;71911.44;;;22.11
64600;BMP280;6553;48.412;9.514;2023-07-31T07:58:19;71906.94;;;22.12
64600;BMP280;6553;48.412;9.514;2023-07-31T08:00:51;71914.09;;;22.14
64600;BMP280;6553;48.412;9.514;2023-07-31T08:03:18;71904.69;;;22.13
64600;BMP280;6553;48.412;9.514;2023-07-31T08:05:44;71908.41;;;22.16
64600;BMP280;6553;48.412;9.514;2023-07-31T08:08:17;71904.69;;;22.13
64600;BMP280;6553;48.412;9.514;2023-07-31T08:10:43;71916.75;;;22.16
64600;BMP280;6553;48.412;9.514;2023-07-31T08:13:11;71914.38;;;22.19
64600;BMP280;6553;48.412;9.514;2023-07-31T08:15:37;71918.22;;;22.20
64600;BMP280;6553;48.412;9.514;2023-07-31T08:18:03;71919.28;;;22.21
64600;BMP280;6553;48.412;9.514;2023-07-31T08:20:29;71918.75;;;22.21
64600;BMP280;6553;48.412;9.514;2023-07-31T08:22:54;71917.56;;;22.22
64600;BMP280;6553;48.412;9.514;2023-07-31T08:25:20;71915.75;;;22.26
64600;BMP280;6553;48.412;9.514;2023-07-31T08:27:46;71919.28;;;22.21
64600;BMP280;6553;48.412;9.514;2023-07-31T08:30:12;71917.56;;;22.22
64600;BMP280;6553;48.412;9.514;2023-07-31T08:32:38;71918.53;;;22.26
64600;BMP280;6553;48.412;9.514;2023-07-31T08:35:04;71916.25;;;22.26
64600;BMP280;6553;48.412;9.514;2023-07-31T08:37:30;71920.09;;;22.27
64600;BMP280;6553;48.412;9.514;2023-07-31T08:39:55;71927.25;;;22.29
64600;BMP280;6553;48.412;9.514;2023-07-31T08:42:21;71928.97;;;22.28
64600;BMP280;6553;48.412;9.514;2023-07-31T08:44:48;71931.53;;;22.33
64600;BMP280;6553;48.412;9.514;2023-07-31T08:47:15;71934.84;;;22.33
64600;BMP280;6553;48.412;9.514;2023-07-31T08:49:42;71930.44;;;22.32
64600;BMP280;6553;48.412;9.514;2023-07-31T08:52:08;71925.41;;;22.32
64600;BMP280;6553;48.412;9.514;2023-07-31T08:54:35;71928.06;;;22.35
64600;BMP280;6553;48.412;9.514;2023-07-31T08:57:01;71937.88;;;22.39
64600;BMP280;6553;48.412;9.514;2023-07-31T08:59:31;71937.47;;;22.36
64600;BMP280;6553;48.412;9.514;2023-07-31T09:02:06;71936.19;;;22.40
64600;BMP280;6553;48.412;9.514;2023-07-31T09:04:33;71939.91;;;22.43
64600;BMP280;6553;48.412;9.514;2023-07-31T09:07:03;71935.94;;;22.45
64600;BMP280;6553;48.412;9.514;2023-07-31T09:09:31;71942.53;;;22.46
64600;BMP280;6553;48.412;9.514;2023-07-31T09:11:58;71938.97;;;22.40
64600;BMP280;6553;48.412;9.514;2023-07-31T09:14:26;71936.81;;;22.38
64600;BMP280;6553;48.412;9.514;2023-07-31T09:16:57;71934.56;;;22.38
64600;BMP280;6553;48.412;9.514;2023-07-31T09:19:35;71936.72;;;22.40
64600;BMP280;6553;48.412;9.514;2023-07-31T09:22:06;71943.72;;;22.44
64600;BMP280;6553;48.412;9.514;2023-07-31T09:24:34;71937.75;;;22.41
64600;BMP280;6553;48.412;9.514;2023-07-31T09:27:01;71935.50;;;22.42
64600;BMP280;6553;48.412;9.514;2023-07-31T09:29:28;71940.94;;;22.44
64600;BMP280;6553;48.412;9.514;2023-07-31T09:31:55;71938.81;;;22.42
64600;BMP280;6553;48.412;9.514;2023-07-31T09:34:46;71940.53;;;22.41
64600;BMP280;6553;48.412;9.514;2023-07-31T09:37:12;71942.78;;;22.41
64600;BMP280;6553;48.412;9.514;2023-07-31T09:39:48;71940.53;;;22.41
64600;BMP280;6553;48.412;9.514;2023-07-31T09:42:13;71939.38;;;22.43
64600;BMP280;6553;48.412;9.514;2023-07-31T09:44:40;71938.28;;;22.42
64600;BMP280;6553;48.412;9.514;2023-07-31T09:47:06;71939.50;;;22.40
64600;BMP280;6553;48.412;9.514;2023-07-31T09:49:46;71937.75;;;22.41
64600;BMP280;6553;48.412;9.514;2023-07-31T09:52:13;71944.78;;;22.45
64600;BMP280;6553;48.412;9.514;2023-07-31T09:54:39;71942.69;;;22.43
64600;BMP280;6553;48.412;9.514;2023-07-31T09:57:05;71941.59;;;22.42
64600;BMP280;6553;48.412;9.514;2023-07-31T09:59:31;71943.31;;;22.41
64600;BMP280;6553;48.412;9.514;2023-07-31T10:01:57;71936.72;;;22.40
64600;BMP280;6553;48.412;9.514;2023-07-31T10:04:27;71939.50;;;22.40
64600;BMP280;6553;48.412;9.514;2023-07-31T10:06:54;71943.31;;;22.41
64600;BMP280;6553;48.412;9.514;2023-07-31T10:09:23;71941.59;;;22.42
64600;BMP280;6553;48.412;9.514;2023-07-31T10:11:59;71939.22;;;22.45
64600;BMP280;6553;48.412;9.514;2023-07-31T10:14:27;71943.72;;;22.44
64600;BMP280;6553;48.412;9.514;2023-07-31T10:16:54;71942.69;;;22.43
64600;BMP280;6553;48.412;9.514;2023-07-31T10:19:22;71944.28;;;22.45
64600;BMP280;6553;48.412;9.514;2023-07-31T10:21:49;71941.50;;;22.45
64600;BMP280;6553;48.412;9.514;2023-07-31T10:24:16;71944.78;;;22.45
64600;BMP280;6553;48.412;9.514;2023-07-31T10:26:46;71949.19;;;22.47
64600;BMP280;6553;48.412;9.514;2023-07-31T10:29:16;71940.84;;;22.47
64600;BMP280;6553;48.412;9.514;2023-07-31T10:31:44;71937.66;;;22.44
64600;BMP280;6553;48.412;9.514;2023-07-31T10:34:11;71938.16;;;22.44
64600;BMP280;6553;48.412;9.514;2023-07-31T10:36:37;71942.13;;;22.43
64600;BMP280;6553;48.412;9.514;2023-07-31T10:39:04;71938.16;;;22.44
64600;BMP280;6553;48.412;9.514;2023-07-31T10:41:31;71933.25;;;22.42
64600;BMP280;6553;48.412;9.514;2023-07-31T10:44:01;71942.69;;;22.43
64600;BMP280;6553;48.412;9.514;2023-07-31T10:46:30;71942.13;;;22.43
64600;BMP280;6553;48.412;9.514;2023-07-31T10:49:01;71938.28;;;22.42
64600;BMP280;6553;48.412;9.514;2023-07-31T10:51:36;71942.13;;;22.43
64600;BMP280;6553;48.412;9.514;2023-07-31T10:54:16;71938.16;;;22.44
64600;BMP280;6553;48.412;9.514;2023-07-31T10:56:50;71937.13;;;22.43
64600;BMP280;6553;48.412;9.514;2023-07-31T10:59:16;71940.31;;;22.46
64600;BMP280;6553;48.412;9.514;2023-07-31T11:01:58;71939.22;;;22.45
64600;BMP280;6553;48.412;9.514;2023-07-31T11:04:27;71944.28;;;22.45
64600;BMP280;6553;48.412;9.514;2023-07-31T11:07:02;71940.31;;;22.46
64600;BMP280;6553;48.412;9.514;2023-07-31T11:09:33;71939.22;;;22.45
64600;BMP280;6553;48.412;9.514;2023-07-31T11:12:00;71944.28;;;22.45
64600;BMP280;6553;48.412;9.514;2023-07-31T11:14:26;71943.09;;;22.46
64600;BMP280;6553;48.412;9.514;2023-07-31T11:16:51;71944.28;;;22.45
64600;BMP280;6553;48.412;9.514;2023-07-31T11:19:24;71942.00;;;22.45
64600;BMP280;6553;48.412;9.514;2023-07-31T11:21:54;71949.19;;;22.47
64600;BMP280;6553;48.412;9.514;2023-07-31T11:24:20;71949.03;;;22.49
64600;BMP280;6553;48.412;9.514;2023-07-31T11:26:53;71945.31;;;22.46
64600;BMP280;6553;48.412;9.514;2023-07-31T11:29:20;71948.00;;;22.48
64600;BMP280;6553;48.412;9.514;2023-07-31T11:31:46;71945.31;;;22.46
64600;BMP280;6553;48.412;9.514;2023-07-31T11:34:13;71945.88;;;22.46
64600;BMP280;6553;48.412;9.514;2023-07-31T11:36:39;71948.00;;;22.48
64600;BMP280;6553;48.412;9.514;2023-07-31T11:39:08;71944.66;;;22.48
64600;BMP280;6553;48.412;9.514;2023-07-31T11:41:34;71950.78;;;22.48
64600;BMP280;6553;48.412;9.514;2023-07-31T11:44:00;71953.84;;;22.54
64600;BMP280;6553;48.412;9.514;2023-07-31T11:46:29;71953.31;;;22.53
64600;BMP280;6553;48.412;9.514;2023-07-31T11:49:00;71953.31;;;22.53
64600;BMP280;6553;48.412;9.514;2023-07-31T11:51:27;71953.84;;;22.54
64600;BMP280;6553;48.412;9.514;2023-07-31T11:53:58;71958.22;;;22.55
64600;BMP280;6553;48.412;9.514;2023-07-31T11:56:26;71955.44;;;22.55
64600;BMP280;6553;48.412;9.514;2023-07-31T11:59:01;71958.75;;;22.56
64600;BMP280;6553;48.412;9.514;2023-07-31T12:01:29;71958.09;;;22.58
64600;BMP280;6553;48.412;9.514;2023-07-31T12:03:56;71950.53;;;22.53
64600;BMP280;6553;48.412;9.514;2023-07-31T12:06:32;71954.38;;;22.54
64600;BMP280;6553;48.412;9.514;2023-07-31T12:09:04;71949.88;;;22.55
64600;BMP280;6553;48.412;9.514;2023-07-31T12:11:29;71953.19;;;22.56
64600;BMP280;6553;48.412;9.514;2023-07-31T12:13:56;71953.69;;;22.56
64600;BMP280;6553;48.412;9.514;2023-07-31T12:16:26;71949.31;;;22.55
64600;BMP280;6553;48.412;9.514;2023-07-31T12:18:53;71954.78;;;22.58
64600;BMP280;6553;48.412;9.514;2023-07-31T12:21:19;71957.03;;;22.57
64600;BMP280;6553;48.412;9.514;2023-07-31T12:23:45;71959.69;;;22.60
64600;BMP280;6553;48.412;9.514;2023-07-31T12:26:14;71959.25;;;22.56
64600;BMP280;6553;48.412;9.514;2023-07-31T12:28:48;71953.69;;;22.56
64600;BMP280;6553;48.412;9.514;2023-07-31T12:31:22;71949.97;;;22.53
64600;BMP280;6553;48.412;9.514;2023-07-31T12:33:50;71956.09;;;22.53
64600;BMP280;6553;48.412;9.514;2023-07-31T12:36:21;71957.16;;;22.54
64600;BMP280;6553;48.412;9.514;2023-07-31T12:38:47;71955.03;;;22.52
64600;BMP280;6553;48.412;9.514;2023-07-31T12:41:13;71953.31;;;22.53
64600;BMP280;6553;48.412;9.514;2023-07-31T12:43:41;71958.22;;;22.55
64600;BMP280;6553;48.412;9.514;2023-07-31T12:46:08;71957.03;;;22.57
64600;BMP280;6553;48.412;9.514;2023-07-31T12:48:34;71953.59;;;22.59
64600;BMP280;6553;48.412;9.514;2023-07-31T12:51:00;71959.16;;;22.59
64600;BMP280;6553;48.412;9.514;2023-07-31T12:53:27;71961.81;;;22.62
64600;BMP280;6553;48.412;9.514;2023-07-31T12:55:54;71962.88;;;22.63
64600;BMP280;6553;48.412;9.514;2023-07-31T12:58:20;71961.28;;;22.61
64600;BMP280;6553;48.412;9.514;2023-07-31T13:00:46;71955.19;;;22.61
64600;BMP280;6553;48.412;9.514;2023-07-31T13:03:11;71959.69;;;22.60
64600;BMP280;6553;48.412;9.514;2023-07-31T13:05:37;71960.75;;;22.61
64600;BMP280;6553;48.412;9.514;2023-07-31T13:08:03;71959.53;;;22.62
64600;BMP280;6553;48.412;9.514;2023-07-31T13:10:29;71957.31;;;22.63
64600;BMP280;6553;48.412;9.514;2023-07-31T13:12:56;71961.69;;;22.64
64600;BMP280;6553;48.412;9.514;2023-07-31T13:15:22;71958.63;;;22.58
64600;BMP280;6553;48.412;9.514;2023-07-31T13:17:48;71954.13;;;22.60
64600;BMP280;6553;48.412;9.514;2023-07-31T13:20:14;71959.16;;;22.59
64600;BMP280;6553;48.412;9.514;2023-07-31T13:22:39;71963.00;;;22.60
64600;BMP280;6553;48.412;9.514;2023-07-31T13:25:06;71960.22;;;22.60
64600;BMP280;6553;48.412;9.514;2023-07-31T13:27:32;71957.44;;;22.60
64600;BMP280;6553;48.412;9.514;2023-07-31T13:29:57;71964.59;;;22.62
64600;BMP280;6553;48.412;9.514;2023-07-31T13:32:23;71967.13;;;22.67
64600;BMP280;6553;48.412;9.514;2023-07-31T13:34:49;71962.75;;;22.65
64600;BMP280;6553;48.412;9.514;2023-07-31T13:37:15;71964.47;;;22.64
64600;BMP280;6553;48.412;9.514;2023-07-31T13:39:41;71962.22;;;22.65
64600;BMP280;6553;48.412;9.514;2023-07-31T13:42:08;71961.03;;;22.66
64600;BMP280;6553;48.412;9.514;2023-07-31T13:44:35;71964.34;;;22.67
64600;BMP280;6553;48.412;9.514;2023-07-31T13:47:01;71968.06;;;22.70
64600;BMP280;6553;48.412;9.514;2023-07-31T13:49:28;71967.66;;;22.67
64600;BMP280;6553;48.412;9.514;2023-07-31T13:51:54;71970.97;;;22.68
64600;BMP280;6553;48.412;9.514;2023-07-31T13:54:20;71972.03;;;22.69
64600;BMP280;6553;48.412;9.514;2023-07-31T13:56:45;71962.22;;;22.65
64600;BMP280;6553;48.412;9.514;2023-07-31T13:59:11;71968.72;;;22.68
64600;BMP280;6553;48.412;9.514;2023-07-31T14:01:37;71960.91;;;22.69
64600;BMP280;6553;48.412;9.514;2023-07-31T14:04:03;71971.38;;;22.71
64600;BMP280;6553;48.412;9.514;2023-07-31T14:06:29;71977.47;;;22.71
64600;BMP280;6553;48.412;9.514;2023-07-31T14:08:55;71971.38;;;22.71
64600;BMP280;6553;48.412;9.514;2023-07-31T14:11:24;71971.91;;;22.71
64600;BMP280;6553;48.412;9.514;2023-07-31T14:13:51;71971.38;;;22.71
64600;BMP280;6553;48.412;9.514;2023-07-31T14:16:17;71973.63;;;22.70
64600;BMP280;6553;48.412;9.514;2023-07-31T14:18:43;71969.78;;;22.69
64600;BMP280;6553;48.412;9.514;2023-07-31T14:21:09;71972.56;;;22.69
64600;BMP280;6553;48.412;9.514;2023-07-31T14:23:34;71966.59;;;22.66
64600;BMP280;6553;48.412;9.514;2023-07-31T14:26:00;71974.16;;;22.71
64600;BMP280;6553;48.412;9.514;2023-07-31T14:28:26;71971.50;;;22.68